Etusivu
METAR-TAF:

METAR-TAF

Lentoasemat :

Skövde, Ruotsi

Leveyspiiri: 58-27N, Pituuspiiri: 013-58E, korkeus merenpinnasta: 98 m

Tämänhetkinen sää

Tämä raportti tehtiin 15 minuuttia sitten, kello 01.50 UTC
Tuuli 6 kn etelästä
Lämpötila -1°C
Kosteus 93%
Ilmanpaine 1005 hPa
Näkyvyys: 7000 m
utua

METAR: ESGR 250150Z AUTO 19006KT 7000 BR NCD M01/M02 Q1005

Aika: 03:05 (02:05 UTC)


TAF: puuttuu

Säähavainnot ja -ennusteet yli 4000 lentoasemalta (METAR- ja TAF-raportit).

Käytössä olevat sääasemat on merkitty karttaan keltaisilla ja punaisilla pisteillä.

Aseta hiiri pisteen päälle nähdäksesi sääaseman nimen.

Klikkaa sitten nähdäksesi säähavainnot ja -ennusteet.

Kartan vaihtaminen: klikkaa mustalla rastilla varustettuja vihreitä pisteitä, niin voit zoomata sisään; viivalla varustettua vihreää pistettä, niin voit zoomata ulos tai vihreitä nuolia, niin pääset viereisille kartoille.


METAR-TAF: